sensor_id;sensor_type;location;lat;lon;timestamp;temperature;humidity
5286;DHT22;2665;53.112;7.358;2022-07-29T00:02:21;14.00;99.90
5286;DHT22;2665;53.112;7.358;2022-07-29T00:04:47;14.00;99.90
5286;DHT22;2665;53.112;7.358;2022-07-29T00:07:12;14.00;99.90
5286;DHT22;2665;53.112;7.358;2022-07-29T00:09:38;14.00;99.90
5286;DHT22;2665;53.112;7.358;2022-07-29T00:12:04;14.00;99.90
5286;DHT22;2665;53.112;7.358;2022-07-29T00:14:29;14.00;99.90
5286;DHT22;2665;53.112;7.358;2022-07-29T00:16:55;14.00;99.90
5286;DHT22;2665;53.112;7.358;2022-07-29T00:19:21;14.10;1.00
5286;DHT22;2665;53.112;7.358;2022-07-29T00:21:46;14.10;1.00
5286;DHT22;2665;53.112;7.358;2022-07-29T00:24:12;14.10;1.00
5286;DHT22;2665;53.112;7.358;2022-07-29T00:26:37;14.10;1.00
5286;DHT22;2665;53.112;7.358;2022-07-29T00:29:03;14.10;1.00
5286;DHT22;2665;53.112;7.358;2022-07-29T00:31:29;14.10;1.00
5286;DHT22;2665;53.112;7.358;2022-07-29T00:33:55;14.10;1.00
5286;DHT22;2665;53.112;7.358;2022-07-29T00:36:21;14.20;1.00
5286;DHT22;2665;53.112;7.358;2022-07-29T00:38:50;14.10;1.00
5286;DHT22;2665;53.112;7.358;2022-07-29T00:41:17;14.10;1.00
5286;DHT22;2665;53.112;7.358;2022-07-29T00:43:44;14.20;1.00
5286;DHT22;2665;53.112;7.358;2022-07-29T00:46:11;14.20;1.00
5286;DHT22;2665;53.112;7.358;2022-07-29T00:48:37;14.20;1.00
5286;DHT22;2665;53.112;7.358;2022-07-29T00:51:04;14.20;1.00
5286;DHT22;2665;53.112;7.358;2022-07-29T00:53:31;14.20;1.00
5286;DHT22;2665;53.112;7.358;2022-07-29T00:55:58;14.20;1.00
5286;DHT22;2665;53.112;7.358;2022-07-29T00:58:24;14.20;1.00
5286;DHT22;2665;53.112;7.358;2022-07-29T01:00:52;14.10;1.00
5286;DHT22;2665;53.112;7.358;2022-07-29T01:03:18;14.10;1.00
5286;DHT22;2665;53.112;7.358;2022-07-29T01:05:45;14.10;1.00
5286;DHT22;2665;53.112;7.358;2022-07-29T01:08:14;14.10;1.00
5286;DHT22;2665;53.112;7.358;2022-07-29T01:10:41;14.10;1.00
5286;DHT22;2665;53.112;7.358;2022-07-29T01:13:08;14.10;1.00
5286;DHT22;2665;53.112;7.358;2022-07-29T01:15:43;14.10;1.00
5286;DHT22;2665;53.112;7.358;2022-07-29T01:18:34;14.10;1.00
5286;DHT22;2665;53.112;7.358;2022-07-29T01:21:40;14.00;1.00
5286;DHT22;2665;53.112;7.358;2022-07-29T01:24:39;14.00;1.00
5286;DHT22;2665;53.112;7.358;2022-07-29T01:29:41;14.10;1.00
5286;DHT22;2665;53.112;7.358;2022-07-29T01:32:17;14.00;1.00
5286;DHT22;2665;53.112;7.358;2022-07-29T01:35:04;14.00;1.00
5286;DHT22;2665;53.112;7.358;2022-07-29T01:37:50;14.00;1.00
5286;DHT22;2665;53.112;7.358;2022-07-29T01:43:17;14.00;9.80
5286;DHT22;2665;53.112;7.358;2022-07-29T01:45:48;14.00;1.00
5286;DHT22;2665;53.112;7.358;2022-07-29T01:50:52;14.00;15.30
5286;DHT22;2665;53.112;7.358;2022-07-29T01:53:29;14.00;24.80
5286;DHT22;2665;53.112;7.358;2022-07-29T01:55:58;14.00;54.40
5286;DHT22;2665;53.112;7.358;2022-07-29T01:58:26;14.00;41.20
5286;DHT22;2665;53.112;7.358;2022-07-29T02:00:53;14.00;5.50
5286;DHT22;2665;53.112;7.358;2022-07-29T02:03:21;14.10;16.70
5286;DHT22;2665;53.112;7.358;2022-07-29T02:05:49;14.10;1.00
5286;DHT22;2665;53.112;7.358;2022-07-29T02:08:16;14.10;1.00
5286;DHT22;2665;53.112;7.358;2022-07-29T02:10:44;14.10;1.00
5286;DHT22;2665;53.112;7.358;2022-07-29T02:13:11;14.10;1.00
5286;DHT22;2665;53.112;7.358;2022-07-29T02:15:38;14.10;1.00
5286;DHT22;2665;53.112;7.358;2022-07-29T02:18:08;14.10;1.00
5286;DHT22;2665;53.112;7.358;2022-07-29T02:20:36;14.10;1.00
5286;DHT22;2665;53.112;7.358;2022-07-29T02:23:03;14.10;1.00
5286;DHT22;2665;53.112;7.358;2022-07-29T02:25:30;14.00;1.00
5286;DHT22;2665;53.112;7.358;2022-07-29T02:27:56;14.10;1.00
5286;DHT22;2665;53.112;7.358;2022-07-29T02:30:24;14.10;1.00
5286;DHT22;2665;53.112;7.358;2022-07-29T02:32:51;14.10;1.00
5286;DHT22;2665;53.112;7.358;2022-07-29T02:35:18;14.00;1.00
5286;DHT22;2665;53.112;7.358;2022-07-29T02:37:45;14.10;1.00
5286;DHT22;2665;53.112;7.358;2022-07-29T02:40:34;14.00;1.00
5286;DHT22;2665;53.112;7.358;2022-07-29T02:43:02;14.00;1.00
5286;DHT22;2665;53.112;7.358;2022-07-29T02:45:29;14.00;1.00
5286;DHT22;2665;53.112;7.358;2022-07-29T02:47:56;14.00;1.00
5286;DHT22;2665;53.112;7.358;2022-07-29T02:50:36;14.10;1.00
5286;DHT22;2665;53.112;7.358;2022-07-29T02:53:14;14.10;1.00
5286;DHT22;2665;53.112;7.358;2022-07-29T02:55:52;14.10;1.00
5286;DHT22;2665;53.112;7.358;2022-07-29T02:58:38;14.10;1.00
5286;DHT22;2665;53.112;7.358;2022-07-29T03:01:11;14.10;1.00
5286;DHT22;2665;53.112;7.358;2022-07-29T03:03:38;14.10;1.00
5286;DHT22;2665;53.112;7.358;2022-07-29T03:06:05;14.10;1.00
5286;DHT22;2665;53.112;7.358;2022-07-29T03:08:32;14.10;1.00
5286;DHT22;2665;53.112;7.358;2022-07-29T03:11:00;14.00;1.00
5286;DHT22;2665;53.112;7.358;2022-07-29T03:13:27;14.00;1.00
5286;DHT22;2665;53.112;7.358;2022-07-29T03:15:55;14.00;1.00
5286;DHT22;2665;53.112;7.358;2022-07-29T03:18:22;14.00;1.00
5286;DHT22;2665;53.112;7.358;2022-07-29T03:20:47;14.00;1.00
5286;DHT22;2665;53.112;7.358;2022-07-29T03:23:22;14.00;1.00
5286;DHT22;2665;53.112;7.358;2022-07-29T03:25:52;14.10;1.00
5286;DHT22;2665;53.112;7.358;2022-07-29T03:28:18;14.00;1.00
5286;DHT22;2665;53.112;7.358;2022-07-29T03:30:45;14.00;99.90
5286;DHT22;2665;53.112;7.358;2022-07-29T03:33:10;14.00;99.90
5286;DHT22;2665;53.112;7.358;2022-07-29T03:35:36;14.10;99.90
5286;DHT22;2665;53.112;7.358;2022-07-29T03:38:02;14.00;99.90
5286;DHT22;2665;53.112;7.358;2022-07-29T03:40:35;14.10;99.90
5286;DHT22;2665;53.112;7.358;2022-07-29T03:43:02;14.10;99.90
5286;DHT22;2665;53.112;7.358;2022-07-29T03:45:30;14.10;99.90
5286;DHT22;2665;53.112;7.358;2022-07-29T03:48:00;14.10;99.90
5286;DHT22;2665;53.112;7.358;2022-07-29T03:50:28;14.10;99.90
5286;DHT22;2665;53.112;7.358;2022-07-29T03:52:54;14.10;99.90
5286;DHT22;2665;53.112;7.358;2022-07-29T03:55:20;14.10;99.90
5286;DHT22;2665;53.112;7.358;2022-07-29T03:57:46;14.10;99.90
5286;DHT22;2665;53.112;7.358;2022-07-29T04:00:14;14.10;99.90
5286;DHT22;2665;53.112;7.358;2022-07-29T04:02:41;14.10;99.90
5286;DHT22;2665;53.112;7.358;2022-07-29T04:05:14;14.10;99.90
5286;DHT22;2665;53.112;7.358;2022-07-29T04:07:47;14.10;99.90
5286;DHT22;2665;53.112;7.358;2022-07-29T04:10:14;14.10;99.90
5286;DHT22;2665;53.112;7.358;2022-07-29T04:12:41;14.10;99.90
5286;DHT22;2665;53.112;7.358;2022-07-29T04:15:07;14.10;99.90
5286;DHT22;2665;53.112;7.358;2022-07-29T04:17:33;14.10;99.90
5286;DHT22;2665;53.112;7.358;2022-07-29T04:19:59;14.10;99.90
5286;DHT22;2665;53.112;7.358;2022-07-29T04:22:24;14.20;99.90
5286;DHT22;2665;53.112;7.358;2022-07-29T04:24:50;14.20;99.90
5286;DHT22;2665;53.112;7.358;2022-07-29T04:27:16;14.20;99.90
5286;DHT22;2665;53.112;7.358;2022-07-29T04:29:41;14.20;99.90
5286;DHT22;2665;53.112;7.358;2022-07-29T04:32:07;14.30;99.90
5286;DHT22;2665;53.112;7.358;2022-07-29T04:34:32;14.30;99.90
5286;DHT22;2665;53.112;7.358;2022-07-29T04:36:58;14.30;99.90
5286;DHT22;2665;53.112;7.358;2022-07-29T04:39:24;14.30;99.90
5286;DHT22;2665;53.112;7.358;2022-07-29T04:41:51;14.30;99.90
5286;DHT22;2665;53.112;7.358;2022-07-29T04:44:16;14.30;99.90
5286;DHT22;2665;53.112;7.358;2022-07-29T04:46:42;14.30;99.90
5286;DHT22;2665;53.112;7.358;2022-07-29T04:49:08;14.40;99.90
5286;DHT22;2665;53.112;7.358;2022-07-29T04:51:34;14.30;99.90
5286;DHT22;2665;53.112;7.358;2022-07-29T04:54:00;14.30;99.90
5286;DHT22;2665;53.112;7.358;2022-07-29T04:56:26;14.30;99.90
5286;DHT22;2665;53.112;7.358;2022-07-29T04:58:51;14.30;99.90
5286;DHT22;2665;53.112;7.358;2022-07-29T05:01:17;14.30;99.90
5286;DHT22;2665;53.112;7.358;2022-07-29T05:03:43;14.40;99.90
5286;DHT22;2665;53.112;7.358;2022-07-29T05:06:09;14.40;99.90
5286;DHT22;2665;53.112;7.358;2022-07-29T05:08:35;14.40;99.90
5286;DHT22;2665;53.112;7.358;2022-07-29T05:11:00;14.40;99.90
5286;DHT22;2665;53.112;7.358;2022-07-29T05:13:26;14.40;99.90
5286;DHT22;2665;53.112;7.358;2022-07-29T05:15:51;14.40;99.90
5286;DHT22;2665;53.112;7.358;2022-07-29T05:18:17;14.40;99.90
5286;DHT22;2665;53.112;7.358;2022-07-29T05:20:42;14.40;99.90
5286;DHT22;2665;53.112;7.358;2022-07-29T05:23:08;14.50;99.90
5286;DHT22;2665;53.112;7.358;2022-07-29T05:25:34;14.50;99.90
5286;DHT22;2665;53.112;7.358;2022-07-29T05:28:00;14.50;99.90
5286;DHT22;2665;53.112;7.358;2022-07-29T05:30:25;14.60;99.90
5286;DHT22;2665;53.112;7.358;2022-07-29T05:32:51;14.60;99.90
5286;DHT22;2665;53.112;7.358;2022-07-29T05:35:17;14.60;99.90
5286;DHT22;2665;53.112;7.358;2022-07-29T05:37:42;14.60;99.90
5286;DHT22;2665;53.112;7.358;2022-07-29T05:40:08;14.70;99.90
5286;DHT22;2665;53.112;7.358;2022-07-29T05:42:34;14.70;99.90
5286;DHT22;2665;53.112;7.358;2022-07-29T05:45:01;14.70;99.90
5286;DHT22;2665;53.112;7.358;2022-07-29T05:47:26;14.80;99.90
5286;DHT22;2665;53.112;7.358;2022-07-29T05:49:52;14.80;99.90
5286;DHT22;2665;53.112;7.358;2022-07-29T05:52:18;14.90;99.90
5286;DHT22;2665;53.112;7.358;2022-07-29T05:54:43;14.90;98.80
5286;DHT22;2665;53.112;7.358;2022-07-29T05:57:19;15.00;96.10
5286;DHT22;2665;53.112;7.358;2022-07-29T05:59:45;15.10;92.80
5286;DHT22;2665;53.112;7.358;2022-07-29T06:02:10;15.20;92.20
5286;DHT22;2665;53.112;7.358;2022-07-29T06:04:36;15.30;90.90
5286;DHT22;2665;53.112;7.358;2022-07-29T06:07:02;15.30;87.70
5286;DHT22;2665;53.112;7.358;2022-07-29T06:09:28;15.40;73.30
5286;DHT22;2665;53.112;7.358;2022-07-29T06:11:54;15.40;65.50
5286;DHT22;2665;53.112;7.358;2022-07-29T06:14:20;15.40;66.00
5286;DHT22;2665;53.112;7.358;2022-07-29T06:16:45;15.50;65.40
5286;DHT22;2665;53.112;7.358;2022-07-29T06:19:11;15.50;61.20
5286;DHT22;2665;53.112;7.358;2022-07-29T06:21:46;15.60;58.20
5286;DHT22;2665;53.112;7.358;2022-07-29T06:24:12;15.70;54.60
5286;DHT22;2665;53.112;7.358;2022-07-29T06:26:39;15.70;49.40
5286;DHT22;2665;53.112;7.358;2022-07-29T06:29:06;15.70;47.50
5286;DHT22;2665;53.112;7.358;2022-07-29T06:31:32;15.80;46.70
5286;DHT22;2665;53.112;7.358;2022-07-29T06:33:57;15.80;45.40
5286;DHT22;2665;53.112;7.358;2022-07-29T06:36:23;15.80;36.30
5286;DHT22;2665;53.112;7.358;2022-07-29T06:38:48;15.80;33.90
5286;DHT22;2665;53.112;7.358;2022-07-29T06:41:14;15.80;35.80
5286;DHT22;2665;53.112;7.358;2022-07-29T06:43:42;15.90;32.50
5286;DHT22;2665;53.112;7.358;2022-07-29T06:46:11;15.90;29.20
5286;DHT22;2665;53.112;7.358;2022-07-29T06:48:37;15.90;29.00
5286;DHT22;2665;53.112;7.358;2022-07-29T06:51:04;16.00;28.40
5286;DHT22;2665;53.112;7.358;2022-07-29T06:53:30;16.00;26.00
5286;DHT22;2665;53.112;7.358;2022-07-29T06:55:57;16.00;26.30
5286;DHT22;2665;53.112;7.358;2022-07-29T06:58:23;16.10;26.10
5286;DHT22;2665;53.112;7.358;2022-07-29T07:00:49;16.20;24.60
5286;DHT22;2665;53.112;7.358;2022-07-29T07:03:16;16.30;22.90
5286;DHT22;2665;53.112;7.358;2022-07-29T07:05:42;16.30;20.90
5286;DHT22;2665;53.112;7.358;2022-07-29T07:08:08;16.40;21.30
5286;DHT22;2665;53.112;7.358;2022-07-29T07:10:34;16.40;18.60
5286;DHT22;2665;53.112;7.358;2022-07-29T07:13:00;16.40;18.60
5286;DHT22;2665;53.112;7.358;2022-07-29T10:43:07;22.70;1.00
5286;DHT22;2665;53.112;7.358;2022-07-29T10:45:40;22.70;1.00
5286;DHT22;2665;53.112;7.358;2022-07-29T10:48:06;22.70;1.00
5286;DHT22;2665;53.112;7.358;2022-07-29T10:50:58;22.80;1.00
5286;DHT22;2665;53.112;7.358;2022-07-29T10:53:50;22.80;1.00
5286;DHT22;2665;53.112;7.358;2022-07-29T10:56:30;23.00;1.00
5286;DHT22;2665;53.112;7.358;2022-07-29T11:01:52;23.20;1.00
5286;DHT22;2665;53.112;7.358;2022-07-29T11:04:58;23.20;1.00
5286;DHT22;2665;53.112;7.358;2022-07-29T11:07:25;23.20;1.00
5286;DHT22;2665;53.112;7.358;2022-07-29T11:15:06;23.20;1.00
5286;DHT22;2665;53.112;7.358;2022-07-29T11:20:54;23.20;1.00
5286;DHT22;2665;53.112;7.358;2022-07-29T11:23:33;23.30;1.00
5286;DHT22;2665;53.112;7.358;2022-07-29T11:26:13;23.40;1.00
5286;DHT22;2665;53.112;7.358;2022-07-29T11:31:44;23.60;1.00
5286;DHT22;2665;53.112;7.358;2022-07-29T11:47:25;24.30;1.00
5286;DHT22;2665;53.112;7.358;2022-07-29T11:49:52;24.30;1.00
5286;DHT22;2665;53.112;7.358;2022-07-29T11:52:19;24.20;1.00
5286;DHT22;2665;53.112;7.358;2022-07-29T11:54:48;24.20;1.00
5286;DHT22;2665;53.112;7.358;2022-07-29T11:57:16;24.10;1.00
5286;DHT22;2665;53.112;7.358;2022-07-29T11:59:44;24.00;1.00
5286;DHT22;2665;53.112;7.358;2022-07-29T12:02:11;23.90;1.00
5286;DHT22;2665;53.112;7.358;2022-07-29T12:04:54;23.90;1.00
5286;DHT22;2665;53.112;7.358;2022-07-29T12:07:33;23.80;1.00
5286;DHT22;2665;53.112;7.358;2022-07-29T12:10:00;23.80;1.00
5286;DHT22;2665;53.112;7.358;2022-07-29T12:12:26;23.70;1.00
5286;DHT22;2665;53.112;7.358;2022-07-29T12:14:52;23.70;1.00
5286;DHT22;2665;53.112;7.358;2022-07-29T12:17:33;23.60;1.00
5286;DHT22;2665;53.112;7.358;2022-07-29T12:20:02;23.50;1.00
5286;DHT22;2665;53.112;7.358;2022-07-29T12:22:31;23.50;1.00
5286;DHT22;2665;53.112;7.358;2022-07-29T12:25:11;23.50;1.00
5286;DHT22;2665;53.112;7.358;2022-07-29T12:27:37;23.50;1.00
5286;DHT22;2665;53.112;7.358;2022-07-29T12:30:10;23.50;1.00
5286;DHT22;2665;53.112;7.358;2022-07-29T12:32:41;23.40;1.00
5286;DHT22;2665;53.112;7.358;2022-07-29T12:35:25;23.40;1.00
5286;DHT22;2665;53.112;7.358;2022-07-29T12:37:51;23.40;1.00
5286;DHT22;2665;53.112;7.358;2022-07-29T12:40:18;23.20;1.00
5286;DHT22;2665;53.112;7.358;2022-07-29T12:43:09;23.20;1.00
5286;DHT22;2665;53.112;7.358;2022-07-29T12:45:40;23.10;1.00
5286;DHT22;2665;53.112;7.358;2022-07-29T12:48:07;23.00;1.00
5286;DHT22;2665;53.112;7.358;2022-07-29T12:50:51;23.00;1.00
5286;DHT22;2665;53.112;7.358;2022-07-29T12:53:17;22.80;1.00
5286;DHT22;2665;53.112;7.358;2022-07-29T12:55:45;22.80;1.00
5286;DHT22;2665;53.112;7.358;2022-07-29T12:58:25;22.70;1.00
5286;DHT22;2665;53.112;7.358;2022-07-29T13:01:05;22.60;1.00
5286;DHT22;2665;53.112;7.358;2022-07-29T13:03:48;22.60;1.00
5286;DHT22;2665;53.112;7.358;2022-07-29T13:11:53;22.30;1.00
5286;DHT22;2665;53.112;7.358;2022-07-29T13:17:08;22.30;1.00
5286;DHT22;2665;53.112;7.358;2022-07-29T13:22:19;22.30;1.00
5286;DHT22;2665;53.112;7.358;2022-07-29T13:24:46;22.20;1.00
5286;DHT22;2665;53.112;7.358;2022-07-29T13:27:14;22.20;1.00
5286;DHT22;2665;53.112;7.358;2022-07-29T13:29:40;22.20;1.00
5286;DHT22;2665;53.112;7.358;2022-07-29T13:32:06;22.20;1.00
5286;DHT22;2665;53.112;7.358;2022-07-29T13:34:32;22.20;1.00
5286;DHT22;2665;53.112;7.358;2022-07-29T13:36:58;22.10;1.00
5286;DHT22;2665;53.112;7.358;2022-07-29T13:39:23;22.10;1.00
5286;DHT22;2665;53.112;7.358;2022-07-29T13:41:49;22.10;1.00
5286;DHT22;2665;53.112;7.358;2022-07-29T13:44:15;22.00;1.00
5286;DHT22;2665;53.112;7.358;2022-07-29T13:46:40;22.00;1.00
5286;DHT22;2665;53.112;7.358;2022-07-29T13:49:06;21.90;1.00
5286;DHT22;2665;53.112;7.358;2022-07-29T13:51:31;21.90;1.00
5286;DHT22;2665;53.112;7.358;2022-07-29T13:53:57;21.80;1.00
5286;DHT22;2665;53.112;7.358;2022-07-29T13:56:23;21.80;1.00
5286;DHT22;2665;53.112;7.358;2022-07-29T13:58:48;21.70;1.00
5286;DHT22;2665;53.112;7.358;2022-07-29T14:01:14;21.70;1.00
5286;DHT22;2665;53.112;7.358;2022-07-29T14:03:40;21.70;1.00
5286;DHT22;2665;53.112;7.358;2022-07-29T14:06:08;21.70;1.00
5286;DHT22;2665;53.112;7.358;2022-07-29T14:08:34;21.80;1.00
5286;DHT22;2665;53.112;7.358;2022-07-29T14:10:59;21.80;1.00
5286;DHT22;2665;53.112;7.358;2022-07-29T14:13:25;21.80;1.00
5286;DHT22;2665;53.112;7.358;2022-07-29T14:15:51;21.80;1.00
5286;DHT22;2665;53.112;7.358;2022-07-29T14:18:17;21.80;1.00
5286;DHT22;2665;53.112;7.358;2022-07-29T14:20:42;21.80;1.00
5286;DHT22;2665;53.112;7.358;2022-07-29T14:23:08;21.80;1.00
5286;DHT22;2665;53.112;7.358;2022-07-29T14:25:34;21.90;1.00
5286;DHT22;2665;53.112;7.358;2022-07-29T14:27:59;21.90;1.00
5286;DHT22;2665;53.112;7.358;2022-07-29T14:30:25;21.90;1.00
5286;DHT22;2665;53.112;7.358;2022-07-29T14:32:50;21.90;1.00
5286;DHT22;2665;53.112;7.358;2022-07-29T14:35:16;21.90;1.00
5286;DHT22;2665;53.112;7.358;2022-07-29T14:37:42;22.00;1.00
5286;DHT22;2665;53.112;7.358;2022-07-29T14:40:09;21.90;1.00
5286;DHT22;2665;53.112;7.358;2022-07-29T14:42:35;21.90;1.00
5286;DHT22;2665;53.112;7.358;2022-07-29T14:45:01;21.90;1.00
5286;DHT22;2665;53.112;7.358;2022-07-29T14:47:27;21.90;1.00
5286;DHT22;2665;53.112;7.358;2022-07-29T14:49:52;21.80;1.00
5286;DHT22;2665;53.112;7.358;2022-07-29T14:52:18;21.80;1.00
5286;DHT22;2665;53.112;7.358;2022-07-29T14:54:44;21.70;1.00
5286;DHT22;2665;53.112;7.358;2022-07-29T14:57:09;21.70;1.00
5286;DHT22;2665;53.112;7.358;2022-07-29T14:59:35;21.70;1.00
5286;DHT22;2665;53.112;7.358;2022-07-29T15:02:00;21.70;1.00
5286;DHT22;2665;53.112;7.358;2022-07-29T15:04:26;21.70;1.00
5286;DHT22;2665;53.112;7.358;2022-07-29T15:06:51;21.70;1.00
5286;DHT22;2665;53.112;7.358;2022-07-29T15:09:17;21.80;1.00
5286;DHT22;2665;53.112;7.358;2022-07-29T15:11:43;21.90;1.00
5286;DHT22;2665;53.112;7.358;2022-07-29T15:14:09;22.00;1.00
5286;DHT22;2665;53.112;7.358;2022-07-29T15:16:36;22.10;1.00
5286;DHT22;2665;53.112;7.358;2022-07-29T15:19:03;22.20;1.00
5286;DHT22;2665;53.112;7.358;2022-07-29T15:21:28;22.40;1.00
5286;DHT22;2665;53.112;7.358;2022-07-29T15:23:54;22.60;1.00
5286;DHT22;2665;53.112;7.358;2022-07-29T15:26:19;22.90;1.00
5286;DHT22;2665;53.112;7.358;2022-07-29T15:28:45;23.10;1.00
5286;DHT22;2665;53.112;7.358;2022-07-29T15:31:11;23.30;1.00
5286;DHT22;2665;53.112;7.358;2022-07-29T15:33:36;23.60;1.00
5286;DHT22;2665;53.112;7.358;2022-07-29T15:36:02;23.90;1.00
5286;DHT22;2665;53.112;7.358;2022-07-29T15:38:30;24.40;1.00
5286;DHT22;2665;53.112;7.358;2022-07-29T15:40:56;24.70;1.00
5286;DHT22;2665;53.112;7.358;2022-07-29T15:43:22;25.10;1.00
5286;DHT22;2665;53.112;7.358;2022-07-29T15:45:49;25.10;1.00
5286;DHT22;2665;53.112;7.358;2022-07-29T15:48:33;25.10;1.00
5286;DHT22;2665;53.112;7.358;2022-07-29T15:50:59;24.90;1.00
5286;DHT22;2665;53.112;7.358;2022-07-29T15:53:25;24.70;1.00
5286;DHT22;2665;53.112;7.358;2022-07-29T15:55:51;24.50;1.00
5286;DHT22;2665;53.112;7.358;2022-07-29T15:58:16;24.40;1.00
5286;DHT22;2665;53.112;7.358;2022-07-29T16:00:42;24.50;1.00
5286;DHT22;2665;53.112;7.358;2022-07-29T16:03:08;24.40;1.00
5286;DHT22;2665;53.112;7.358;2022-07-29T16:05:34;24.50;1.00
5286;DHT22;2665;53.112;7.358;2022-07-29T16:07:59;24.80;1.00
5286;DHT22;2665;53.112;7.358;2022-07-29T16:10:25;25.50;1.00
5286;DHT22;2665;53.112;7.358;2022-07-29T16:12:51;25.80;1.00
5286;DHT22;2665;53.112;7.358;2022-07-29T16:15:17;25.80;1.00
5286;DHT22;2665;53.112;7.358;2022-07-29T16:17:43;25.90;1.00
5286;DHT22;2665;53.112;7.358;2022-07-29T16:20:09;26.20;1.00
5286;DHT22;2665;53.112;7.358;2022-07-29T16:22:35;26.10;1.00
5286;DHT22;2665;53.112;7.358;2022-07-29T16:25:00;26.00;1.00
5286;DHT22;2665;53.112;7.358;2022-07-29T16:27:26;25.80;1.00
5286;DHT22;2665;53.112;7.358;2022-07-29T16:29:55;25.70;1.00
5286;DHT22;2665;53.112;7.358;2022-07-29T16:32:21;25.60;1.00
5286;DHT22;2665;53.112;7.358;2022-07-29T16:34:47;26.00;1.00
5286;DHT22;2665;53.112;7.358;2022-07-29T16:37:12;27.10;1.00
5286;DHT22;2665;53.112;7.358;2022-07-29T16:39:41;28.10;1.00
5286;DHT22;2665;53.112;7.358;2022-07-29T16:42:07;28.70;1.00
5286;DHT22;2665;53.112;7.358;2022-07-29T16:44:33;29.20;1.00
5286;DHT22;2665;53.112;7.358;2022-07-29T16:46:59;29.60;1.00
5286;DHT22;2665;53.112;7.358;2022-07-29T16:49:25;30.00;1.00
5286;DHT22;2665;53.112;7.358;2022-07-29T16:51:50;30.30;1.00
5286;DHT22;2665;53.112;7.358;2022-07-29T16:54:16;30.50;1.00
5286;DHT22;2665;53.112;7.358;2022-07-29T16:56:41;30.50;1.00
5286;DHT22;2665;53.112;7.358;2022-07-29T16:59:07;30.60;1.00
5286;DHT22;2665;53.112;7.358;2022-07-29T17:01:33;30.60;1.00
5286;DHT22;2665;53.112;7.358;2022-07-29T17:03:58;30.60;1.00
5286;DHT22;2665;53.112;7.358;2022-07-29T17:06:31;30.70;1.00
5286;DHT22;2665;53.112;7.358;2022-07-29T17:09:00;30.60;1.00
5286;DHT22;2665;53.112;7.358;2022-07-29T17:11:25;30.30;1.00
5286;DHT22;2665;53.112;7.358;2022-07-29T17:13:51;30.20;1.00
5286;DHT22;2665;53.112;7.358;2022-07-29T17:16:17;29.90;1.00
5286;DHT22;2665;53.112;7.358;2022-07-29T17:18:44;29.50;1.00
5286;DHT22;2665;53.112;7.358;2022-07-29T17:21:09;29.10;1.00
5286;DHT22;2665;53.112;7.358;2022-07-29T17:23:35;28.80;1.00
5286;DHT22;2665;53.112;7.358;2022-07-29T17:26:01;28.60;1.00
5286;DHT22;2665;53.112;7.358;2022-07-29T17:28:27;28.50;1.00
5286;DHT22;2665;53.112;7.358;2022-07-29T17:30:53;28.70;1.00
5286;DHT22;2665;53.112;7.358;2022-07-29T17:33:18;28.90;1.00
5286;DHT22;2665;53.112;7.358;2022-07-29T17:35:44;29.10;1.00
5286;DHT22;2665;53.112;7.358;2022-07-29T17:38:28;29.20;1.00
5286;DHT22;2665;53.112;7.358;2022-07-29T17:40:54;29.20;1.00
5286;DHT22;2665;53.112;7.358;2022-07-29T17:43:19;29.20;1.00
5286;DHT22;2665;53.112;7.358;2022-07-29T17:45:45;29.20;1.00
5286;DHT22;2665;53.112;7.358;2022-07-29T17:48:10;29.10;1.00
5286;DHT22;2665;53.112;7.358;2022-07-29T17:50:36;28.90;1.00
5286;DHT22;2665;53.112;7.358;2022-07-29T17:53:02;28.80;1.00
5286;DHT22;2665;53.112;7.358;2022-07-29T17:55:27;28.90;1.00
5286;DHT22;2665;53.112;7.358;2022-07-29T17:57:53;28.90;1.00
5286;DHT22;2665;53.112;7.358;2022-07-29T18:00:18;28.90;1.00
5286;DHT22;2665;53.112;7.358;2022-07-29T18:02:45;28.80;1.00
5286;DHT22;2665;53.112;7.358;2022-07-29T18:05:11;28.50;1.00
5286;DHT22;2665;53.112;7.358;2022-07-29T18:07:37;28.00;1.00
5286;DHT22;2665;53.112;7.358;2022-07-29T18:10:03;27.60;1.00
5286;DHT22;2665;53.112;7.358;2022-07-29T18:12:29;27.40;1.00
5286;DHT22;2665;53.112;7.358;2022-07-29T18:14:55;27.30;1.00
5286;DHT22;2665;53.112;7.358;2022-07-29T18:17:20;27.20;1.00
5286;DHT22;2665;53.112;7.358;2022-07-29T18:19:46;26.90;1.00
5286;DHT22;2665;53.112;7.358;2022-07-29T18:22:12;26.70;1.00
5286;DHT22;2665;53.112;7.358;2022-07-29T18:24:40;26.40;1.00
5286;DHT22;2665;53.112;7.358;2022-07-29T18:27:05;26.20;1.00
5286;DHT22;2665;53.112;7.358;2022-07-29T18:29:31;26.00;1.00
5286;DHT22;2665;53.112;7.358;2022-07-29T18:31:57;25.70;1.00
5286;DHT22;2665;53.112;7.358;2022-07-29T18:34:26;25.20;1.00
5286;DHT22;2665;53.112;7.358;2022-07-29T18:36:52;24.60;1.00
5286;DHT22;2665;53.112;7.358;2022-07-29T18:39:18;24.10;1.00
5286;DHT22;2665;53.112;7.358;2022-07-29T18:41:44;23.60;1.00
5286;DHT22;2665;53.112;7.358;2022-07-29T18:44:09;23.20;1.00
5286;DHT22;2665;53.112;7.358;2022-07-29T18:46:41;22.80;1.00
5286;DHT22;2665;53.112;7.358;2022-07-29T18:49:07;22.50;1.00
5286;DHT22;2665;53.112;7.358;2022-07-29T18:51:33;22.20;1.00
5286;DHT22;2665;53.112;7.358;2022-07-29T18:53:58;22.00;1.00
5286;DHT22;2665;53.112;7.358;2022-07-29T18:56:24;21.80;1.00
5286;DHT22;2665;53.112;7.358;2022-07-29T18:58:49;21.50;1.00
5286;DHT22;2665;53.112;7.358;2022-07-29T19:01:15;21.30;1.00
5286;DHT22;2665;53.112;7.358;2022-07-29T19:03:41;21.10;1.00
5286;DHT22;2665;53.112;7.358;2022-07-29T19:06:06;21.00;1.00
5286;DHT22;2665;53.112;7.358;2022-07-29T19:08:32;20.80;1.00
5286;DHT22;2665;53.112;7.358;2022-07-29T19:10:57;20.70;1.00
5286;DHT22;2665;53.112;7.358;2022-07-29T19:13:24;20.60;1.00
5286;DHT22;2665;53.112;7.358;2022-07-29T19:15:49;20.40;1.00
5286;DHT22;2665;53.112;7.358;2022-07-29T19:18:15;20.30;1.00
5286;DHT22;2665;53.112;7.358;2022-07-29T19:20:41;20.20;1.00
5286;DHT22;2665;53.112;7.358;2022-07-29T19:23:06;20.10;1.00
5286;DHT22;2665;53.112;7.358;2022-07-29T19:25:33;20.00;1.00
5286;DHT22;2665;53.112;7.358;2022-07-29T19:27:59;19.90;1.00
5286;DHT22;2665;53.112;7.358;2022-07-29T19:30:25;19.80;1.00
5286;DHT22;2665;53.112;7.358;2022-07-29T19:32:51;19.70;1.00
5286;DHT22;2665;53.112;7.358;2022-07-29T19:35:16;19.60;1.00
5286;DHT22;2665;53.112;7.358;2022-07-29T19:38:00;19.50;1.00
5286;DHT22;2665;53.112;7.358;2022-07-29T19:40:27;19.40;1.00
5286;DHT22;2665;53.112;7.358;2022-07-29T19:42:53;19.40;1.00
5286;DHT22;2665;53.112;7.358;2022-07-29T19:45:20;19.30;1.00
5286;DHT22;2665;53.112;7.358;2022-07-29T19:47:46;19.20;1.00
5286;DHT22;2665;53.112;7.358;2022-07-29T19:50:12;19.10;1.00
5286;DHT22;2665;53.112;7.358;2022-07-29T19:52:38;19.00;1.00
5286;DHT22;2665;53.112;7.358;2022-07-29T19:55:04;18.90;1.00
5286;DHT22;2665;53.112;7.358;2022-07-29T19:57:30;18.80;1.00
5286;DHT22;2665;53.112;7.358;2022-07-29T19:59:56;18.70;1.00
5286;DHT22;2665;53.112;7.358;2022-07-29T20:02:21;18.60;1.00
